Time;durP1;ratioP1;P1;durP2;ratioP2;P2;SDS_P1;SDS_P2;PMS_P1;PMS_P2;Temp;Humidity;BMP_temperature;BMP_pressure;BME280_temperature;BME280_humidity;BME280_pressure;Samples;Min_cycle;Max_cycle;Signal;HPM_P1;HPM_P2
2022/01/05 00:02:15;;;;;;;3.53;0.73;;;;;;;7.39;49.95;98871.22;10618490;27;20213;-83
2022/01/05 00:07:18;;;;;;;4.23;0.60;;;;;;;7.33;50.71;98864.22;10569598;28;20221;-86
2022/01/05 00:12:20;;;;;;;2.27;0.70;;;;;;;7.90;50.29;98872.88;10586715;28;20190;-84
2022/01/05 00:17:22;;;;;;;4.87;1.17;;;;;;;7.82;50.86;98875.75;10568314;28;20221;-83
2022/01/05 00:22:24;;;;;;;4.00;1.17;;;;;;;7.69;51.48;98879.63;10528613;28;20619;-83
2022/01/05 00:27:27;;;;;;;3.00;0.97;;;;;;;7.90;50.88;98888.84;10543950;28;20502;-83
2022/01/05 00:32:29;;;;;;;7.23;0.80;;;;;;;8.20;50.55;98892.41;10543742;28;20191;-82
2022/01/05 00:37:31;;;;;;;5.03;1.37;;;;;;;8.15;50.18;98868.25;10568673;28;20210;-82
2022/01/05 00:42:33;;;;;;;4.10;1.67;;;;;;;8.21;49.66;98888.47;10568223;28;20507;-83
2022/01/05 00:47:36;;;;;;;8.37;1.53;;;;;;;8.28;49.97;98883.94;10567887;28;20262;-87
2022/01/05 00:52:38;;;;;;;5.67;1.33;;;;;;;8.39;50.23;98883.53;10561212;28;20462;-83
2022/01/05 00:57:40;;;;;;;6.20;1.13;;;;;;;7.93;51.01;98871.41;10526056;28;20819;-82
2022/01/05 01:02:42;;;;;;;5.47;1.70;;;;;;;8.21;50.07;98882.88;10525584;28;20248;-83
2022/01/05 01:07:46;;;;;;;7.03;1.60;;;;;;;7.99;50.56;98886.00;10526571;28;20222;-83
2022/01/05 01:12:48;;;;;;;4.53;1.47;;;;;;;7.72;51.60;98892.94;10565022;27;20254;-85
2022/01/05 01:17:50;;;;;;;8.27;2.00;;;;;;;7.75;51.72;98892.25;10627880;27;20251;-84
2022/01/05 01:22:52;;;;;;;4.47;1.77;;;;;;;7.68;51.96;98898.38;10619882;27;20209;-83
2022/01/05 01:27:55;;;;;;;4.70;2.00;;;;;;;8.39;49.86;98901.16;10550549;28;20202;-83
2022/01/05 01:32:58;;;;;;;6.97;1.87;;;;;;;7.58;52.15;98910.75;10544309;28;20202;-82
2022/01/05 01:38:00;;;;;;;8.33;2.10;;;;;;;7.83;51.61;98910.94;10553578;28;20201;-83
2022/01/05 01:43:03;;;;;;;4.80;2.03;;;;;;;7.74;50.89;98913.00;10562859;28;20274;-82
2022/01/05 01:48:05;;;;;;;7.90;2.63;;;;;;;7.44;52.02;98926.94;10566963;28;20206;-82
2022/01/05 01:53:07;;;;;;;5.40;2.30;;;;;;;7.42;52.30;98923.66;10561946;28;20206;-82
2022/01/05 01:58:10;;;;;;;6.73;2.70;;;;;;;7.93;50.21;98916.13;10576730;28;20640;-82
2022/01/05 02:03:14;;;;;;;5.97;3.47;;;;;;;6.89;52.65;98921.34;10560091;28;20226;-82
2022/01/05 02:08:16;;;;;;;5.23;3.33;;;;;;;7.50;51.86;98919.19;10550629;28;20287;-81
2022/01/05 02:13:19;;;;;;;7.10;3.80;;;;;;;7.38;51.80;98933.84;10554283;28;20659;-83
2022/01/05 02:23:23;;;;;;;10.23;4.87;;;;;;;7.47;51.75;98931.88;10545641;28;20350;-82
2022/01/05 02:28:25;;;;;;;11.67;5.23;;;;;;;7.33;51.33;98936.84;10545793;28;20559;-82
2022/01/05 02:33:28;;;;;;;7.63;3.63;;;;;;;7.05;52.35;98942.00;10560242;28;20202;-85
2022/01/05 02:38:30;;;;;;;8.40;4.30;;;;;;;7.76;50.53;98939.41;10566608;28;20215;-84
2022/01/05 02:43:34;;;;;;;7.93;4.17;;;;;;;7.67;51.32;98943.44;10573352;28;20226;-81
2022/01/05 02:48:38;;;;;;;8.23;3.83;;;;;;;7.78;50.59;98945.50;10590088;28;20186;-82
2022/01/05 02:53:40;;;;;;;8.73;3.40;;;;;;;7.80;50.74;98947.97;10559373;28;20775;-83
2022/01/05 02:58:42;;;;;;;8.77;4.23;;;;;;;6.78;53.80;98962.75;10571491;28;20251;-84
2022/01/05 03:03:44;;;;;;;7.57;4.20;;;;;;;7.12;52.99;98964.63;10572557;28;20210;-84
2022/01/05 03:08:46;;;;;;;10.93;4.00;;;;;;;7.10;52.40;98971.75;10550993;28;20280;-82
2022/01/05 03:13:50;;;;;;;5.70;3.77;;;;;;;7.44;51.51;98974.44;10530114;28;20223;-83
2022/01/05 03:18:52;;;;;;;9.57;3.73;;;;;;;7.10;52.74;98989.31;10530258;28;20190;-84
2022/01/05 03:23:54;;;;;;;6.87;4.03;;;;;;;7.75;50.80;98992.91;10546329;28;20648;-84
2022/01/05 03:28:56;;;;;;;8.73;4.53;;;;;;;6.89;52.74;98994.75;10526935;28;20700;-83
2022/01/05 03:33:58;;;;;;;12.00;5.00;;;;;;;7.00;52.07;99005.56;10529179;28;20212;-84
2022/01/05 03:39:01;;;;;;;10.23;5.03;;;;;;;7.29;51.08;99014.09;10550797;28;20242;-83
2022/01/05 03:44:04;;;;;;;15.50;5.50;;;;;;;8.00;49.58;99017.13;10553926;28;20518;-82
2022/01/05 03:49:06;;;;;;;11.67;5.13;;;;;;;7.42;51.23;99035.44;10587455;28;20246;-84
2022/01/05 03:54:08;;;;;;;13.37;5.00;;;;;;;7.11;50.62;99043.19;10587589;28;20254;-84
2022/01/05 03:59:10;;;;;;;7.70;4.00;;;;;;;6.46;52.86;99041.41;10527526;28;20210;-84
2022/01/05 04:04:12;;;;;;;8.60;4.07;;;;;;;6.49;52.11;99049.91;10521471;28;20564;-84
2022/01/05 04:09:15;;;;;;;10.50;3.73;;;;;;;6.41;52.44;99058.28;10544384;28;20287;-83
2022/01/05 04:14:17;;;;;;;8.13;3.03;;;;;;;6.64;51.24;99056.16;10515467;28;20227;-84
2022/01/05 04:19:19;;;;;;;6.83;2.87;;;;;;;6.58;50.85;99054.69;10527214;28;20496;-84
2022/01/05 04:24:21;;;;;;;7.87;2.67;;;;;;;5.44;53.83;99072.13;10536454;28;20226;-84
2022/01/05 04:29:24;;;;;;;9.40;2.67;;;;;;;6.65;50.20;99078.16;10586109;28;20190;-84
2022/01/05 04:34:26;;;;;;;7.33;2.57;;;;;;;6.15;50.85;99086.94;10552137;28;20198;-84
2022/01/05 04:39:50;;;;;;;11.33;2.60;;;;;;;6.93;49.77;99095.44;10534809;28;20568;-84
2022/01/05 04:44:55;;;;;;;7.13;2.70;;;;;;;6.21;50.89;99100.72;10527842;28;20225;-84
2022/01/05 04:49:57;;;;;;;8.93;2.00;;;;;;;6.32;49.82;99107.66;10526047;28;20256;-86
2022/01/05 04:54:59;;;;;;;8.80;2.23;;;;;;;6.08;50.26;99103.28;10527416;28;20263;-85
2022/01/05 05:00:03;;;;;;;5.00;1.87;;;;;;;5.69;51.78;99101.28;10525932;28;20203;-82
2022/01/05 05:05:05;;;;;;;5.93;1.67;;;;;;;5.32;51.80;99110.88;10527381;28;20214;-83
2022/01/05 05:10:08;;;;;;;5.63;1.50;;;;;;;5.85;51.35;99114.84;10534429;28;20243;-83
2022/01/05 05:15:10;;;;;;;7.40;1.83;;;;;;;5.41;51.51;99110.97;10565828;28;20225;-83
2022/01/05 05:20:12;;;;;;;5.70;1.97;;;;;;;5.23;50.89;99115.59;10583625;28;20605;-83
2022/01/05 05:25:15;;;;;;;8.57;2.00;;;;;;;5.38;49.58;99118.00;10566488;28;20229;-83
2022/01/05 05:30:19;;;;;;;7.97;2.13;;;;;;;5.24;52.18;99117.22;10551384;28;20206;-82
2022/01/05 05:35:22;;;;;;;7.93;1.87;;;;;;;5.49;50.76;99123.28;10524825;28;20202;-83
2022/01/05 05:40:24;;;;;;;6.23;1.90;;;;;;;5.65;50.13;99116.19;10525252;28;20236;-82
2022/01/05 05:45:27;;;;;;;7.77;2.00;;;;;;;5.04;51.58;99129.66;10542755;28;20218;-83
2022/01/05 05:50:30;;;;;;;7.00;1.40;;;;;;;5.29;50.53;99131.03;10524734;28;20190;-84
2022/01/05 05:55:33;;;;;;;8.60;1.87;;;;;;;4.95;51.74;99125.19;10541690;28;20187;-84
2022/01/05 06:00:35;;;;;;;9.63;2.27;;;;;;;5.25;50.13;99121.66;10542225;28;20201;-84
2022/01/05 06:05:38;;;;;;;7.33;1.57;;;;;;;5.09;50.66;99121.22;10531511;28;20522;-83
2022/01/05 06:10:40;;;;;;;4.77;1.33;;;;;;;5.56;50.57;99118.06;10558527;28;20678;-83
2022/01/05 06:15:42;;;;;;;8.53;1.63;;;;;;;4.96;50.65;99126.81;10565120;28;20214;-83
2022/01/05 06:20:44;;;;;;;10.37;1.43;;;;;;;5.38;50.08;99140.28;10536672;28;20263;-83
2022/01/05 06:25:46;;;;;;;6.13;1.30;;;;;;;4.85;51.08;99147.69;10555717;28;20230;-82
2022/01/05 06:30:49;;;;;;;7.37;2.00;;;;;;;4.58;51.99;99151.34;10571906;27;20198;-82
2022/01/05 06:35:51;;;;;;;8.20;1.90;;;;;;;4.81;51.28;99155.00;10552964;28;20191;-83
2022/01/05 06:40:53;;;;;;;5.87;1.50;;;;;;;4.65;51.74;99158.13;10562295;27;20487;-82
2022/01/05 06:45:55;;;;;;;7.03;2.07;;;;;;;5.13;49.95;99157.59;10558478;28;20226;-83
2022/01/05 06:50:57;;;;;;;3.73;1.57;;;;;;;4.94;51.32;99163.31;10557856;28;20232;-83
2022/01/05 06:55:59;;;;;;;10.93;2.50;;;;;;;5.04;50.67;99163.06;10562429;28;20202;-84
2022/01/05 07:01:02;;;;;;;10.10;2.27;;;;;;;5.42;50.50;99163.53;10572696;27;20197;-83
2022/01/05 07:06:04;;;;;;;13.40;2.57;;;;;;;5.13;51.02;99179.88;10544069;28;20231;-83
2022/01/05 07:11:06;;;;;;;11.13;2.23;;;;;;;5.07;51.08;99178.31;10557415;28;20241;-83
2022/01/05 07:16:09;;;;;;;10.10;2.00;;;;;;;5.03;50.40;99171.75;10564977;28;20222;-83
2022/01/05 07:21:11;;;;;;;7.00;1.53;;;;;;;4.74;51.13;99169.34;10581516;28;20229;-82
2022/01/05 07:26:13;;;;;;;10.10;2.33;;;;;;;5.72;49.83;99178.66;10564576;28;20307;-83
2022/01/05 07:31:15;;;;;;;8.73;2.23;;;;;;;5.25;50.66;99184.88;10580047;28;20202;-84
2022/01/05 07:36:17;;;;;;;11.47;2.20;;;;;;;4.91;51.57;99190.94;10547936;28;20202;-84
2022/01/05 07:41:20;;;;;;;7.30;1.60;;;;;;;4.90;50.37;99189.31;10539106;28;20247;-84
2022/01/05 07:46:22;;;;;;;5.53;1.63;;;;;;;5.25;50.25;99182.91;10572278;28;20288;-84
2022/01/05 07:51:24;;;;;;;10.07;2.30;;;;;;;5.82;48.92;99202.69;10581807;28;20593;-84
2022/01/05 07:56:27;;;;;;;5.63;1.97;;;;;;;5.35;50.41;99224.44;10562236;28;20190;-85
2022/01/05 08:01:29;;;;;;;13.63;2.20;;;;;;;5.84;49.38;99216.31;10576611;28;20198;-83
2022/01/05 08:06:32;;;;;;;14.00;2.37;;;;;;;5.72;48.95;99211.28;10572668;28;20646;-84
2022/01/05 08:11:35;;;;;;;7.93;1.90;;;;;;;5.00;51.35;99228.06;10567329;28;20264;-84
2022/01/05 08:16:37;;;;;;;9.40;2.33;;;;;;;5.38;50.84;99217.44;10532279;28;20222;-84
2022/01/05 08:21:39;;;;;;;8.47;1.93;;;;;;;5.90;49.02;99218.66;10579121;28;20198;-84
2022/01/05 08:26:42;;;;;;;8.93;2.03;;;;;;;4.95;51.13;99226.19;10558629;28;20225;-83
2022/01/05 08:31:44;;;;;;;11.97;2.30;;;;;;;5.84;49.88;99225.50;10533687;28;20456;-83
2022/01/05 08:36:46;;;;;;;8.13;2.33;;;;;;;5.77;49.89;99231.53;10538144;28;20672;-83
2022/01/05 08:41:49;;;;;;;7.20;2.23;;;;;;;4.91;52.71;99227.94;10546450;27;20264;-83
2022/01/05 08:46:52;;;;;;;7.97;2.10;;;;;;;6.07;49.22;99221.53;10527606;27;20583;-83
2022/01/05 08:51:54;;;;;;;8.30;2.77;;;;;;;5.58;50.87;99230.84;10575789;27;20528;-83
2022/01/05 08:56:56;;;;;;;6.50;2.50;;;;;;;4.64;53.10;99231.59;10552009;28;20202;-84
2022/01/05 09:01:59;;;;;;;13.20;2.80;;;;;;;5.65;50.69;99222.91;10539152;28;20211;-85
2022/01/05 09:07:01;;;;;;;10.13;2.37;;;;;;;6.00;50.83;99223.97;10547670;28;20249;-84
2022/01/05 09:12:04;;;;;;;6.03;2.60;;;;;;;5.39;51.81;99219.06;10542544;28;20231;-83
2022/01/05 09:17:07;;;;;;;11.60;3.07;;;;;;;5.50;51.36;99219.66;10555339;28;20230;-83
2022/01/05 09:22:10;;;;;;;7.37;2.77;;;;;;;5.18;52.31;99218.72;10555114;27;20206;-84
2022/01/05 09:27:23;;;;;;;8.47;2.80;;;;;;;5.85;51.41;99224.34;10550302;28;20226;-83
2022/01/05 09:32:25;;;;;;;10.53;2.90;;;;;;;6.10;49.84;99220.91;10557584;28;20278;-83
2022/01/05 09:37:32;;;;;;;7.77;2.70;;;;;;;5.65;50.64;99230.44;10545562;28;20244;-87
2022/01/05 09:42:36;;;;;;;5.37;2.53;;;;;;;6.18;50.63;99241.63;10545379;28;20236;-84
2022/01/05 09:48:08;;;;;;;8.87;3.17;;;;;;;6.69;49.49;99241.03;10561296;28;20629;-83
2022/01/05 09:53:11;;;;;;;9.90;3.97;;;;;;;5.86;52.23;99239.94;10573008;28;20206;-84
2022/01/05 09:58:14;;;;;;;13.37;4.87;;;;;;;6.09;51.58;99238.78;10570621;28;20231;-82
2022/01/05 10:03:16;;;;;;;8.00;3.90;;;;;;;5.67;53.17;99233.72;10573842;28;20270;-82
2022/01/05 10:08:19;;;;;;;10.33;5.13;;;;;;;6.21;52.13;99234.56;10568864;28;20237;-85
2022/01/05 10:13:21;;;;;;;12.23;5.10;;;;;;;6.16;51.68;99236.38;10563508;28;20364;-83
2022/01/05 10:18:23;;;;;;;9.40;4.30;;;;;;;5.62;53.43;99250.56;10563055;27;20201;-81
2022/01/05 10:23:41;;;;;;;11.40;4.33;;;;;;;6.11;53.41;99236.50;10561521;28;20255;-84
2022/01/05 10:28:45;;;;;;;9.27;4.93;;;;;;;5.79;53.86;99239.59;10563276;28;20193;-82
2022/01/05 10:33:48;;;;;;;10.20;4.00;;;;;;;5.66;54.71;99230.13;10562286;28;20259;-82
2022/01/05 10:38:52;;;;;;;9.47;4.93;;;;;;;5.41;56.40;99239.09;10561049;28;20248;-83
2022/01/05 10:44:08;;;;;;;9.40;4.40;;;;;;;5.72;55.23;99233.56;10569195;28;20623;-81
2022/01/05 10:49:21;;;;;;;9.27;4.07;;;;;;;5.62;55.60;99239.41;10574463;27;20220;-82
2022/01/05 10:54:26;;;;;;;11.53;4.37;;;;;;;6.12;54.57;99235.34;10566222;28;20224;-85
2022/01/05 10:59:37;;;;;;;9.60;4.53;;;;;;;5.80;55.75;99222.53;10531282;27;20317;-84
2022/01/05 11:04:40;;;;;;;7.63;3.87;;;;;;;5.59;55.51;99257.56;10473952;28;20282;-83
2022/01/05 11:09:52;;;;;;;10.17;4.00;;;;;;;5.41;56.80;99234.34;10455320;28;20246;-83
2022/01/05 11:14:54;;;;;;;9.70;4.73;;;;;;;6.22;55.50;99247.38;10446571;28;20660;-80
2022/01/05 11:20:09;;;;;;;8.70;4.17;;;;;;;5.48;57.20;99260.91;10456878;28;20228;-84
2022/01/05 11:25:11;;;;;;;11.43;4.10;;;;;;;5.38;56.98;99248.88;10446516;28;20278;-83
2022/01/05 11:30:13;;;;;;;9.53;4.10;;;;;;;5.86;56.23;99273.41;10445459;28;20258;-87
2022/01/05 11:35:15;;;;;;;7.07;4.13;;;;;;;5.81;56.30;99268.75;10464589;28;20258;-85
2022/01/05 11:40:18;;;;;;;10.87;5.83;;;;;;;5.74;56.72;99275.91;10419153;28;20353;-83
2022/01/05 11:45:45;;;;;;;9.70;4.80;;;;;;;6.87;54.03;99290.19;10448801;28;20689;-85
2022/01/05 11:50:48;;;;;;;8.50;4.47;;;;;;;6.50;55.01;99287.91;10451108;28;20195;-84
2022/01/05 11:56:04;;;;;;;7.13;4.57;;;;;;;6.70;55.13;99294.91;10468668;28;20200;-83
2022/01/05 12:01:12;;;;;;;6.67;4.90;;;;;;;5.83;57.42;99310.25;10448664;28;20199;-82
2022/01/05 12:06:15;;;;;;;11.73;5.07;;;;;;;5.11;58.51;99329.69;10471102;28;20635;-82
2022/01/05 12:11:41;;;;;;;9.80;4.77;;;;;;;6.26;55.67;99309.75;10450545;28;20200;-82
2022/01/05 12:16:55;;;;;;;10.13;5.10;;;;;;;6.29;56.22;99326.69;10442053;28;20278;-82
2022/01/05 12:22:00;;;;;;;11.80;5.13;;;;;;;6.10;56.54;99324.06;10446133;28;20261;-82
2022/01/05 12:27:18;;;;;;;10.90;4.97;;;;;;;6.28;57.57;99338.97;10504266;28;20234;-83
2022/01/05 12:32:31;;;;;;;8.23;4.70;;;;;;;7.03;54.95;99323.25;10463795;28;20212;-87
2022/01/05 12:37:58;;;;;;;8.47;5.23;;;;;;;6.23;58.05;99327.13;10450528;28;20192;-82
2022/01/05 12:43:10;;;;;;;11.87;5.80;;;;;;;6.16;57.48;99327.56;10432855;28;20266;-82
2022/01/05 12:48:36;;;;;;;12.03;6.60;;;;;;;6.32;57.77;99336.38;10453764;28;20220;-83
2022/01/05 12:53:56;;;;;;;14.30;5.93;;;;;;;5.56;60.36;99341.78;10445654;28;20241;-83
2022/01/05 12:58:59;;;;;;;12.70;6.27;;;;;;;6.57;56.89;99338.50;10457991;28;20253;-85
2022/01/05 13:04:08;;;;;;;10.60;5.37;;;;;;;6.89;56.34;99340.94;10449389;28;20592;-84
2022/01/05 13:09:23;;;;;;;13.10;6.17;;;;;;;6.78;56.47;99339.59;10446528;28;20231;-86
2022/01/05 13:14:31;;;;;;;11.33;5.80;;;;;;;7.38;55.37;99346.56;10438535;28;20469;-82
2022/01/05 13:19:47;;;;;;;16.63;5.87;;;;;;;6.31;58.44;99349.50;10458179;28;20207;-82
2022/01/05 13:24:49;;;;;;;15.17;5.30;;;;;;;6.65;57.96;99362.84;10464751;28;20298;-87
2022/01/05 13:29:54;;;;;;;12.37;5.33;;;;;;;7.08;57.34;99345.47;10449814;28;20573;-83
2022/01/05 13:35:08;;;;;;;11.10;5.00;;;;;;;7.07;57.62;99361.41;10449102;28;20197;-83
2022/01/05 13:40:17;;;;;;;9.00;4.87;;;;;;;7.04;57.48;99353.66;10452895;28;20208;-82
2022/01/05 13:45:31;;;;;;;8.57;3.63;;;;;;;7.15;57.64;99365.41;10456148;28;20220;-82
2022/01/05 13:50:38;;;;;;;14.60;5.00;;;;;;;7.07;58.31;99360.59;10451040;28;20199;-87
2022/01/05 13:55:42;;;;;;;10.40;4.33;;;;;;;7.11;57.89;99358.81;10465140;28;20192;-84
2022/01/05 14:00:47;;;;;;;10.47;4.43;;;;;;;6.97;57.98;99375.66;10420784;28;20241;-83
2022/01/05 14:05:50;;;;;;;11.37;3.60;;;;;;;7.33;57.67;99383.88;10445042;28;20223;-83
2022/01/05 14:11:05;;;;;;;14.93;5.43;;;;;;;7.03;58.75;99379.94;10444975;28;20204;-85
2022/01/05 14:16:07;;;;;;;9.00;4.73;;;;;;;7.27;58.43;99396.34;10446865;28;20228;-87
2022/01/05 14:21:09;;;;;;;12.53;4.80;;;;;;;7.47;57.53;99412.53;10450339;28;20254;-84
2022/01/05 14:26:13;;;;;;;10.80;5.47;;;;;;;7.36;58.64;99422.34;10434579;28;20224;-85
2022/01/05 14:31:17;;;;;;;12.93;4.73;;;;;;;7.84;57.20;99427.09;10439569;28;20220;-84
2022/01/05 14:36:27;;;;;;;11.83;5.87;;;;;;;6.88;59.39;99427.81;10433010;28;20196;-85
2022/01/05 14:41:36;;;;;;;13.37;5.53;;;;;;;7.29;58.57;99447.13;10483440;28;20207;-89
2022/01/05 14:46:41;;;;;;;8.47;4.93;;;;;;;7.86;57.43;99452.75;10464202;28;20530;-89
2022/01/05 14:51:45;;;;;;;8.73;4.60;;;;;;;6.16;61.92;99473.41;10440616;28;20196;-87
2022/01/05 14:56:47;;;;;;;9.53;5.93;;;;;;;7.61;58.03;99487.88;10443001;28;20201;-86
2022/01/05 15:01:49;;;;;;;14.90;6.83;;;;;;;7.26;59.81;99486.88;10452211;28;20222;-88
2022/01/05 15:06:53;;;;;;;13.77;7.00;;;;;;;7.35;60.18;99498.94;10464009;28;20227;-85
2022/01/05 15:11:57;;;;;;;15.10;6.87;;;;;;;7.68;58.20;99507.78;10446894;28;20551;-87
2022/01/05 15:16:59;;;;;;;11.63;6.80;;;;;;;7.07;59.58;99503.00;10470452;28;20227;-84
2022/01/05 15:22:02;;;;;;;12.90;6.40;;;;;;;7.55;58.41;99508.72;10456480;28;20675;-86
2022/01/05 15:27:04;;;;;;;12.73;6.60;;;;;;;7.59;58.05;99512.53;10449843;28;20259;-87
2022/01/05 15:32:07;;;;;;;10.07;6.37;;;;;;;8.28;55.95;99524.72;10455838;28;20261;-85
2022/01/05 15:37:09;;;;;;;13.90;7.30;;;;;;;7.68;57.41;99540.50;10490527;28;20195;-85
2022/01/05 15:42:11;;;;;;;14.07;8.40;;;;;;;7.77;58.01;99561.75;10479052;28;20217;-83
2022/01/05 15:47:14;;;;;;;14.03;8.40;;;;;;;7.59;58.24;99574.84;10458454;28;20297;-84
2022/01/05 15:52:18;;;;;;;17.43;8.67;;;;;;;7.64;58.91;99590.66;10484210;28;20261;-83
2022/01/05 15:57:51;;;;;;;12.13;7.40;;;;;;;8.07;57.33;99599.25;10432461;28;20235;-85
2022/01/05 16:02:48;;;;;;;11.60;6.60;;;;;;;8.03;57.59;99629.00;10449630;28;20211;-86
2022/01/05 16:07:50;;;;;;;13.00;7.00;;;;;;;7.77;58.46;99642.03;10440815;28;20688;-86
2022/01/05 16:12:53;;;;;;;14.70;8.00;;;;;;;8.50;56.42;99635.81;10448737;28;20208;-85
2022/01/05 16:17:55;;;;;;;12.90;7.10;;;;;;;8.71;54.69;99651.97;10456353;28;20289;-82
2022/01/05 16:22:58;;;;;;;11.97;6.90;;;;;;;8.06;57.05;99641.53;10452579;28;20200;-84
2022/01/05 16:28:00;;;;;;;10.03;5.43;;;;;;;7.91;57.13;99657.56;10476971;28;20265;-85
2022/01/05 16:33:02;;;;;;;9.53;5.27;;;;;;;8.29;55.86;99666.31;10435878;28;20582;-88
2022/01/05 16:38:06;;;;;;;7.83;4.00;;;;;;;7.34;58.17;99676.13;10448195;28;20235;-83
2022/01/05 16:43:09;;;;;;;6.27;3.23;;;;;;;8.16;56.00;99670.03;10453675;28;20196;-84
2022/01/05 16:48:11;;;;;;;8.20;3.27;;;;;;;8.86;53.85;99677.53;10452398;28;20216;-85
2022/01/05 16:53:13;;;;;;;10.83;4.20;;;;;;;8.59;54.14;99683.41;10443008;28;20200;-83
2022/01/05 17:03:37;;;;;;;15.77;5.97;;;;;;;8.10;56.65;99699.31;10441126;28;20196;-84
2022/01/05 17:08:39;;;;;;;14.17;5.83;;;;;;;8.14;56.81;99711.53;10444410;28;20253;-85
2022/01/05 17:13:42;;;;;;;5.83;2.37;;;;;;;6.92;58.58;99757.50;10447457;28;20274;-84
2022/01/05 17:18:44;;;;;;;5.00;1.70;;;;;;;6.27;59.25;99792.00;10464093;28;20237;-89
2022/01/05 17:23:51;;;;;;;3.03;1.23;;;;;;;5.71;60.93;99801.28;10457708;28;20195;-87
2022/01/05 17:28:54;;;;;;;2.20;0.90;;;;;;;6.31;57.86;99781.88;10464567;28;20215;-85
2022/01/05 17:33:57;;;;;;;2.20;0.50;;;;;;;6.08;57.42;99775.31;10438837;28;20205;-86
2022/01/05 17:39:00;;;;;;;2.53;0.30;;;;;;;6.72;54.97;99758.78;10429040;28;20204;-90
2022/01/05 17:44:02;;;;;;;1.37;0.27;;;;;;;8.26;52.03;99750.94;10453068;28;20203;-84
2022/01/05 17:49:05;;;;;;;1.90;0.40;;;;;;;8.10;52.28;99766.47;10459433;28;20208;-85
2022/01/05 17:54:08;;;;;;;5.67;1.40;;;;;;;8.06;52.62;99765.44;10452682;28;20196;-88
2022/01/05 17:59:10;;;;;;;3.40;0.70;;;;;;;6.89;56.37;99818.41;10449543;28;20208;-87
2022/01/05 18:04:13;;;;;;;10.70;4.00;;;;;;;7.56;57.11;99813.09;10440267;28;20208;-89
2022/01/05 18:09:16;;;;;;;7.30;4.17;;;;;;;7.80;56.04;99820.38;10445069;28;20566;-87
2022/01/05 18:14:18;;;;;;;8.97;4.83;;;;;;;9.10;52.96;99807.97;10443379;28;20224;-87
2022/01/05 18:19:22;;;;;;;9.63;5.97;;;;;;;8.59;54.56;99815.00;10454424;28;20192;-85
2022/01/05 18:24:24;;;;;;;12.37;7.23;;;;;;;8.60;54.48;99833.47;10466572;28;20273;-90
2022/01/05 18:29:27;;;;;;;17.47;9.07;;;;;;;8.83;54.17;99832.25;10450042;28;20297;-84
2022/01/05 18:34:29;;;;;;;23.23;11.10;;;;;;;7.71;57.93;99841.84;10446151;28;20261;-86
2022/01/05 18:39:31;;;;;;;15.30;9.33;;;;;;;8.27;57.81;99844.94;10463589;28;20200;-89
2022/01/05 18:44:54;;;;;;;20.80;8.47;;;;;;;8.58;55.95;99850.56;10455993;28;20199;-87
2022/01/05 18:49:58;;;;;;;17.87;10.47;;;;;;;8.80;55.77;99858.09;10452826;28;20261;-86
2022/01/05 18:55:01;;;;;;;15.77;8.40;;;;;;;8.46;56.34;99847.53;10469415;28;20207;-85
2022/01/05 19:00:06;;;;;;;20.97;8.43;;;;;;;8.13;57.29;99877.75;10468516;28;20609;-87
2022/01/05 19:05:10;;;;;;;24.77;7.57;;;;;;;7.65;58.82;99887.81;10453431;28;20238;-89
2022/01/05 19:10:12;;;;;;;16.63;8.13;;;;;;;8.19;57.71;99898.84;10459337;28;20273;-88
2022/01/05 19:15:15;;;;;;;18.33;7.57;;;;;;;8.71;56.60;99896.44;10451426;28;20240;-87
2022/01/05 19:20:17;;;;;;;15.53;7.07;;;;;;;8.27;56.36;99905.69;10460955;28;20666;-87
2022/01/05 19:25:19;;;;;;;17.80;7.20;;;;;;;8.60;55.98;99920.25;10459871;28;20654;-85
2022/01/05 19:30:30;;;;;;;19.10;7.03;;;;;;;8.91;55.33;99926.72;10438546;28;20609;-84
2022/01/05 19:35:33;;;;;;;15.97;6.53;;;;;;;8.47;55.57;99943.56;10420073;28;20638;-87
2022/01/05 19:40:36;;;;;;;18.93;7.07;;;;;;;9.34;53.69;99938.13;10461456;28;20195;-83
2022/01/05 19:45:39;;;;;;;12.40;5.60;;;;;;;8.84;54.77;99954.34;10443952;28;20251;-85
2022/01/05 19:50:49;;;;;;;23.13;6.57;;;;;;;8.45;56.01;99962.63;10441874;28;20253;-86
2022/01/05 19:56:04;;;;;;;15.53;6.07;;;;;;;8.80;55.07;99961.72;10447757;28;20208;-87
2022/01/05 20:01:07;;;;;;;14.87;5.90;;;;;;;8.64;54.86;99955.72;10419759;28;20270;-86
2022/01/05 20:06:10;;;;;;;15.53;4.93;;;;;;;8.31;55.78;99955.09;10435374;28;20950;-88
2022/01/05 20:11:12;;;;;;;15.53;5.87;;;;;;;8.76;55.51;99963.53;10447154;28;20200;-88
2022/01/05 20:16:15;;;;;;;14.47;6.03;;;;;;;7.67;57.95;99975.84;10441766;28;20223;-85
2022/01/05 20:21:18;;;;;;;16.97;5.47;;;;;;;8.50;55.94;99982.13;10449965;28;20258;-85
2022/01/05 20:26:22;;;;;;;17.17;5.60;;;;;;;8.61;55.13;99980.72;10446678;28;20227;-87
2022/01/05 20:31:25;;;;;;;21.23;5.87;;;;;;;7.93;57.38;99982.53;10458687;28;20265;-86
2022/01/05 20:36:27;;;;;;;17.83;6.27;;;;;;;8.80;55.18;99981.34;10457122;28;20257;-84
2022/01/05 20:41:29;;;;;;;15.00;5.60;;;;;;;9.28;53.65;99987.09;10432453;28;20207;-85
2022/01/05 20:46:32;;;;;;;22.97;5.97;;;;;;;8.77;55.46;99997.97;10439504;28;20268;-86
2022/01/05 20:51:35;;;;;;;14.23;5.77;;;;;;;8.21;56.76;100013.28;10439803;28;20551;-86
2022/01/05 20:56:38;;;;;;;17.53;5.53;;;;;;;7.94;58.04;100003.78;10429151;28;20201;-84
2022/01/05 21:01:40;;;;;;;14.07;4.33;;;;;;;7.72;56.79;100020.47;10445020;28;20200;-84
2022/01/05 21:06:43;;;;;;;15.53;4.53;;;;;;;7.47;58.18;100019.03;10436902;28;20300;-86
2022/01/05 21:11:45;;;;;;;13.47;4.07;;;;;;;7.84;56.36;100036.72;10460163;28;20516;-85
2022/01/05 21:16:48;;;;;;;15.60;3.93;;;;;;;8.48;55.22;100040.41;10450445;28;20636;-86
2022/01/05 21:21:51;;;;;;;12.37;4.33;;;;;;;8.55;55.21;100051.97;10447567;28;20200;-86
2022/01/05 21:26:53;;;;;;;19.23;4.00;;;;;;;7.57;57.33;100051.53;10433286;28;20220;-88
2022/01/05 21:31:56;;;;;;;15.93;3.73;;;;;;;8.19;56.43;100046.34;10451598;28;20334;-86
2022/01/05 21:36:58;;;;;;;13.80;3.73;;;;;;;7.87;56.97;100064.09;10443086;28;20235;-86
2022/01/05 21:42:01;;;;;;;11.90;3.60;;;;;;;8.47;54.85;100061.13;10450140;28;20211;-88
2022/01/05 21:47:05;;;;;;;10.10;2.93;;;;;;;9.11;52.47;100071.06;10445675;28;20529;-85
2022/01/05 21:52:07;;;;;;;19.00;3.33;;;;;;;8.98;52.34;100071.97;10457285;28;20196;-86
2022/01/05 21:57:10;;;;;;;12.07;3.10;;;;;;;8.83;53.01;100087.16;10459985;28;20675;-89
2022/01/05 22:02:14;;;;;;;19.87;3.27;;;;;;;8.57;52.76;100088.91;10438968;28;20211;-86
2022/01/05 22:07:17;;;;;;;11.90;2.83;;;;;;;8.24;53.92;100097.44;10490119;28;20236;-89
2022/01/05 22:12:19;;;;;;;12.87;2.60;;;;;;;8.67;52.40;100097.06;10467981;28;20551;-85
2022/01/05 22:17:21;;;;;;;18.67;3.37;;;;;;;8.34;52.93;100101.16;10477413;28;20274;-85
2022/01/05 22:22:24;;;;;;;20.73;3.40;;;;;;;8.63;52.72;100107.25;10461005;28;20501;-85
2022/01/05 22:27:27;;;;;;;12.07;2.80;;;;;;;8.72;51.92;100108.16;10430230;28;20227;-86
2022/01/05 22:32:30;;;;;;;11.67;1.87;;;;;;;7.44;54.71;100137.03;10466162;28;20207;-86
2022/01/05 22:37:33;;;;;;;16.87;3.17;;;;;;;7.85;53.68;100142.72;10465256;28;20277;-86
2022/01/05 22:42:35;;;;;;;10.80;2.20;;;;;;;7.63;54.30;100152.94;10457395;28;20236;-88
2022/01/05 22:47:37;;;;;;;15.50;2.70;;;;;;;7.54;54.65;100162.00;10454008;28;20285;-87
2022/01/05 22:52:41;;;;;;;14.73;2.73;;;;;;;7.39;55.11;100162.25;10474213;28;20501;-87
2022/01/05 22:57:43;;;;;;;16.03;2.63;;;;;;;7.55;54.49;100158.06;10407307;28;20189;-88
2022/01/05 23:02:45;;;;;;;14.50;2.53;;;;;;;7.66;53.68;100152.28;10433376;28;20236;-88
2022/01/05 23:07:48;;;;;;;12.90;1.60;;;;;;;7.38;53.83;100166.19;10506525;28;20292;-87
2022/01/05 23:12:51;;;;;;;12.27;2.10;;;;;;;8.17;51.95;100169.78;10449037;28;20212;-88
2022/01/05 23:17:54;;;;;;;12.43;2.40;;;;;;;7.91;52.50;100171.41;10423608;28;20625;-85
2022/01/05 23:22:56;;;;;;;12.03;2.00;;;;;;;7.70;52.65;100176.53;10420286;28;20204;-86
2022/01/05 23:27:58;;;;;;;8.07;2.43;;;;;;;7.34;53.41;100195.88;10464513;28;20207;-86
2022/01/05 23:33:00;;;;;;;11.33;2.30;;;;;;;7.10;54.48;100200.72;10447119;28;20562;-86
2022/01/05 23:38:03;;;;;;;19.43;2.50;;;;;;;7.41;53.85;100201.91;10428140;28;20204;-86
2022/01/05 23:43:11;;;;;;;7.87;1.73;;;;;;;7.90;52.66;100203.31;10437955;28;20229;-85
2022/01/05 23:48:14;;;;;;;19.10;3.07;;;;;;;7.38;53.14;100207.28;10437423;28;20498;-86
2022/01/05 23:53:20;;;;;;;11.67;2.63;;;;;;;7.62;52.94;100204.38;10447791;28;20646;-86